sensor_id;sensor_type;location;lat;lon;timestamp;P1;durP1;ratioP1;P2;durP2;ratioP2
60867;SDS011;46702;48.370;10.794;2023-11-22T00:01:52;10.63;;;5.70;;
60867;SDS011;46702;48.370;10.794;2023-11-22T00:04:18;9.38;;;5.72;;
60867;SDS011;46702;48.370;10.794;2023-11-22T00:06:45;10.40;;;6.35;;
60867;SDS011;46702;48.370;10.794;2023-11-22T00:09:10;11.45;;;6.25;;
60867;SDS011;46702;48.370;10.794;2023-11-22T00:11:36;11.70;;;6.47;;
60867;SDS011;46702;48.370;10.794;2023-11-22T00:14:02;10.55;;;6.15;;
60867;SDS011;46702;48.370;10.794;2023-11-22T00:16:28;12.60;;;6.45;;
60867;SDS011;46702;48.370;10.794;2023-11-22T00:18:55;11.65;;;6.35;;
60867;SDS011;46702;48.370;10.794;2023-11-22T00:21:20;9.43;;;5.90;;
60867;SDS011;46702;48.370;10.794;2023-11-22T00:23:46;12.55;;;5.85;;
60867;SDS011;46702;48.370;10.794;2023-11-22T00:26:12;13.35;;;6.35;;
60867;SDS011;46702;48.370;10.794;2023-11-22T00:28:37;10.07;;;5.72;;
60867;SDS011;46702;48.370;10.794;2023-11-22T00:31:03;12.20;;;6.05;;
60867;SDS011;46702;48.370;10.794;2023-11-22T00:33:29;9.95;;;5.47;;
60867;SDS011;46702;48.370;10.794;2023-11-22T00:35:56;10.38;;;5.45;;
60867;SDS011;46702;48.370;10.794;2023-11-22T00:38:23;12.50;;;6.03;;
60867;SDS011;46702;48.370;10.794;2023-11-22T00:40:49;9.43;;;5.80;;
60867;SDS011;46702;48.370;10.794;2023-11-22T00:43:15;11.40;;;5.65;;
60867;SDS011;46702;48.370;10.794;2023-11-22T00:45:41;10.05;;;6.22;;
60867;SDS011;46702;48.370;10.794;2023-11-22T00:48:06;10.25;;;5.97;;
60867;SDS011;46702;48.370;10.794;2023-11-22T00:50:32;9.20;;;5.18;;
60867;SDS011;46702;48.370;10.794;2023-11-22T00:52:58;10.25;;;5.70;;
60867;SDS011;46702;48.370;10.794;2023-11-22T00:55:24;11.95;;;6.00;;
60867;SDS011;46702;48.370;10.794;2023-11-22T00:57:49;10.73;;;5.47;;
60867;SDS011;46702;48.370;10.794;2023-11-22T01:00:15;12.48;;;5.95;;
60867;SDS011;46702;48.370;10.794;2023-11-22T01:02:41;9.45;;;5.45;;
60867;SDS011;46702;48.370;10.794;2023-11-22T01:05:07;10.63;;;5.68;;
60867;SDS011;46702;48.370;10.794;2023-11-22T01:07:36;12.55;;;5.93;;
60867;SDS011;46702;48.370;10.794;2023-11-22T01:10:03;11.52;;;6.32;;
60867;SDS011;46702;48.370;10.794;2023-11-22T01:12:29;11.43;;;6.10;;
60867;SDS011;46702;48.370;10.794;2023-11-22T01:14:55;10.85;;;6.20;;
60867;SDS011;46702;48.370;10.794;2023-11-22T01:17:20;11.32;;;6.38;;
60867;SDS011;46702;48.370;10.794;2023-11-22T01:19:46;10.63;;;5.20;;
60867;SDS011;46702;48.370;10.794;2023-11-22T01:22:11;7.78;;;5.20;;
60867;SDS011;46702;48.370;10.794;2023-11-22T01:24:37;10.55;;;6.03;;
60867;SDS011;46702;48.370;10.794;2023-11-22T01:27:03;10.38;;;5.72;;
60867;SDS011;46702;48.370;10.794;2023-11-22T01:29:30;7.72;;;5.40;;
60867;SDS011;46702;48.370;10.794;2023-11-22T01:31:55;6.05;;;4.60;;
60867;SDS011;46702;48.370;10.794;2023-11-22T01:34:21;7.80;;;4.60;;
60867;SDS011;46702;48.370;10.794;2023-11-22T01:36:49;5.05;;;3.70;;
60867;SDS011;46702;48.370;10.794;2023-11-22T01:39:15;5.30;;;3.38;;
60867;SDS011;46702;48.370;10.794;2023-11-22T01:41:40;4.28;;;3.30;;
60867;SDS011;46702;48.370;10.794;2023-11-22T01:44:09;3.20;;;2.95;;
60867;SDS011;46702;48.370;10.794;2023-11-22T01:46:34;5.75;;;3.53;;
60867;SDS011;46702;48.370;10.794;2023-11-22T01:49:00;3.83;;;3.08;;
60867;SDS011;46702;48.370;10.794;2023-11-22T01:51:26;5.15;;;3.78;;
60867;SDS011;46702;48.370;10.794;2023-11-22T01:53:53;3.90;;;3.10;;
60867;SDS011;46702;48.370;10.794;2023-11-22T01:56:22;3.72;;;3.10;;
60867;SDS011;46702;48.370;10.794;2023-11-22T01:58:49;4.00;;;3.30;;
60867;SDS011;46702;48.370;10.794;2023-11-22T02:01:15;5.68;;;4.45;;
60867;SDS011;46702;48.370;10.794;2023-11-22T02:03:41;5.53;;;4.15;;
60867;SDS011;46702;48.370;10.794;2023-11-22T02:06:07;5.18;;;3.75;;
60867;SDS011;46702;48.370;10.794;2023-11-22T02:08:34;5.43;;;4.40;;
60867;SDS011;46702;48.370;10.794;2023-11-22T02:11:00;4.18;;;3.78;;
60867;SDS011;46702;48.370;10.794;2023-11-22T02:13:30;5.85;;;4.65;;
60867;SDS011;46702;48.370;10.794;2023-11-22T02:15:56;7.28;;;4.93;;
60867;SDS011;46702;48.370;10.794;2023-11-22T02:18:24;6.00;;;5.03;;
60867;SDS011;46702;48.370;10.794;2023-11-22T02:20:51;6.45;;;5.38;;
60867;SDS011;46702;48.370;10.794;2023-11-22T02:23:16;7.85;;;5.15;;
60867;SDS011;46702;48.370;10.794;2023-11-22T02:25:43;7.82;;;4.95;;
60867;SDS011;46702;48.370;10.794;2023-11-22T02:28:09;6.38;;;4.70;;
60867;SDS011;46702;48.370;10.794;2023-11-22T02:30:35;6.25;;;4.57;;
60867;SDS011;46702;48.370;10.794;2023-11-22T02:33:01;8.43;;;5.72;;
60867;SDS011;46702;48.370;10.794;2023-11-22T02:35:27;7.45;;;5.60;;
60867;SDS011;46702;48.370;10.794;2023-11-22T02:37:52;6.00;;;4.53;;
60867;SDS011;46702;48.370;10.794;2023-11-22T02:40:21;7.28;;;5.55;;
60867;SDS011;46702;48.370;10.794;2023-11-22T02:42:47;7.68;;;4.82;;
60867;SDS011;46702;48.370;10.794;2023-11-22T02:45:17;6.93;;;5.07;;
60867;SDS011;46702;48.370;10.794;2023-11-22T02:47:44;6.70;;;4.55;;
60867;SDS011;46702;48.370;10.794;2023-11-22T02:50:11;6.32;;;5.20;;
60867;SDS011;46702;48.370;10.794;2023-11-22T02:52:40;5.93;;;4.55;;
60867;SDS011;46702;48.370;10.794;2023-11-22T02:55:07;7.28;;;5.18;;
60867;SDS011;46702;48.370;10.794;2023-11-22T02:57:36;6.03;;;4.32;;
60867;SDS011;46702;48.370;10.794;2023-11-22T03:00:05;6.00;;;4.30;;
60867;SDS011;46702;48.370;10.794;2023-11-22T03:02:33;5.97;;;4.25;;
60867;SDS011;46702;48.370;10.794;2023-11-22T03:04:59;6.15;;;3.50;;
60867;SDS011;46702;48.370;10.794;2023-11-22T03:07:27;5.10;;;3.92;;
60867;SDS011;46702;48.370;10.794;2023-11-22T03:09:53;5.15;;;3.72;;
60867;SDS011;46702;48.370;10.794;2023-11-22T03:12:19;4.88;;;3.80;;
60867;SDS011;46702;48.370;10.794;2023-11-22T03:14:48;4.43;;;3.92;;
60867;SDS011;46702;48.370;10.794;2023-11-22T03:17:16;4.82;;;3.80;;
60867;SDS011;46702;48.370;10.794;2023-11-22T03:19:42;5.28;;;3.88;;
60867;SDS011;46702;48.370;10.794;2023-11-22T03:22:10;7.15;;;3.88;;
60867;SDS011;46702;48.370;10.794;2023-11-22T03:24:35;5.88;;;4.40;;
60867;SDS011;46702;48.370;10.794;2023-11-22T03:27:03;6.55;;;5.03;;
60867;SDS011;46702;48.370;10.794;2023-11-22T03:29:29;6.88;;;4.80;;
60867;SDS011;46702;48.370;10.794;2023-11-22T03:31:54;6.35;;;4.40;;
60867;SDS011;46702;48.370;10.794;2023-11-22T03:34:20;7.57;;;4.60;;
60867;SDS011;46702;48.370;10.794;2023-11-22T03:36:46;8.23;;;5.88;;
60867;SDS011;46702;48.370;10.794;2023-11-22T03:39:14;7.75;;;5.22;;
60867;SDS011;46702;48.370;10.794;2023-11-22T03:41:40;9.18;;;5.97;;
60867;SDS011;46702;48.370;10.794;2023-11-22T03:44:07;6.97;;;5.22;;
60867;SDS011;46702;48.370;10.794;2023-11-22T03:46:36;10.00;;;5.50;;
60867;SDS011;46702;48.370;10.794;2023-11-22T03:49:02;8.35;;;5.38;;
60867;SDS011;46702;48.370;10.794;2023-11-22T03:51:32;8.15;;;5.15;;
60867;SDS011;46702;48.370;10.794;2023-11-22T03:53:58;9.45;;;5.82;;
60867;SDS011;46702;48.370;10.794;2023-11-22T03:56:23;7.82;;;5.05;;
60867;SDS011;46702;48.370;10.794;2023-11-22T03:58:49;8.15;;;5.32;;
60867;SDS011;46702;48.370;10.794;2023-11-22T04:01:15;8.07;;;4.93;;
60867;SDS011;46702;48.370;10.794;2023-11-22T04:03:41;6.43;;;4.75;;
60867;SDS011;46702;48.370;10.794;2023-11-22T04:06:07;8.38;;;5.53;;
60867;SDS011;46702;48.370;10.794;2023-11-22T04:08:33;8.48;;;4.95;;
60867;SDS011;46702;48.370;10.794;2023-11-22T04:10:58;8.35;;;5.43;;
60867;SDS011;46702;48.370;10.794;2023-11-22T04:13:24;8.55;;;5.68;;
60867;SDS011;46702;48.370;10.794;2023-11-22T04:15:50;7.80;;;5.38;;
60867;SDS011;46702;48.370;10.794;2023-11-22T04:18:16;7.35;;;5.43;;
60867;SDS011;46702;48.370;10.794;2023-11-22T04:20:42;7.72;;;5.20;;
60867;SDS011;46702;48.370;10.794;2023-11-22T04:23:07;7.88;;;4.97;;
60867;SDS011;46702;48.370;10.794;2023-11-22T04:25:36;9.77;;;5.75;;
60867;SDS011;46702;48.370;10.794;2023-11-22T04:28:02;7.80;;;4.75;;
60867;SDS011;46702;48.370;10.794;2023-11-22T04:30:28;8.55;;;5.15;;
60867;SDS011;46702;48.370;10.794;2023-11-22T04:32:54;6.90;;;4.70;;
60867;SDS011;46702;48.370;10.794;2023-11-22T04:35:19;10.35;;;6.30;;
60867;SDS011;46702;48.370;10.794;2023-11-22T04:37:45;8.82;;;5.78;;
60867;SDS011;46702;48.370;10.794;2023-11-22T04:40:12;9.38;;;5.50;;
60867;SDS011;46702;48.370;10.794;2023-11-22T04:42:39;12.60;;;5.20;;
60867;SDS011;46702;48.370;10.794;2023-11-22T04:45:05;7.95;;;4.18;;
60867;SDS011;46702;48.370;10.794;2023-11-22T04:47:31;6.93;;;4.50;;
60867;SDS011;46702;48.370;10.794;2023-11-22T04:49:57;8.15;;;5.05;;
60867;SDS011;46702;48.370;10.794;2023-11-22T04:52:23;10.95;;;5.30;;
60867;SDS011;46702;48.370;10.794;2023-11-22T04:54:48;8.80;;;5.60;;
60867;SDS011;46702;48.370;10.794;2023-11-22T04:57:14;9.23;;;6.32;;
60867;SDS011;46702;48.370;10.794;2023-11-22T04:59:40;8.48;;;5.72;;
60867;SDS011;46702;48.370;10.794;2023-11-22T05:02:06;8.40;;;5.95;;
60867;SDS011;46702;48.370;10.794;2023-11-22T05:04:32;8.90;;;5.82;;
60867;SDS011;46702;48.370;10.794;2023-11-22T05:06:58;7.25;;;5.20;;
60867;SDS011;46702;48.370;10.794;2023-11-22T05:09:23;8.98;;;5.85;;
60867;SDS011;46702;48.370;10.794;2023-11-22T05:11:49;7.65;;;4.65;;
60867;SDS011;46702;48.370;10.794;2023-11-22T05:14:17;7.07;;;4.82;;
60867;SDS011;46702;48.370;10.794;2023-11-22T05:16:42;8.00;;;5.03;;
60867;SDS011;46702;48.370;10.794;2023-11-22T05:19:08;7.82;;;5.07;;
60867;SDS011;46702;48.370;10.794;2023-11-22T05:21:34;8.52;;;5.28;;
60867;SDS011;46702;48.370;10.794;2023-11-22T05:23:59;8.18;;;4.95;;
60867;SDS011;46702;48.370;10.794;2023-11-22T05:26:25;6.63;;;4.38;;
60867;SDS011;46702;48.370;10.794;2023-11-22T05:28:52;9.90;;;4.68;;
60867;SDS011;46702;48.370;10.794;2023-11-22T05:31:19;9.35;;;5.63;;
60867;SDS011;46702;48.370;10.794;2023-11-22T05:33:45;7.35;;;5.60;;
60867;SDS011;46702;48.370;10.794;2023-11-22T05:36:11;6.45;;;4.22;;
60867;SDS011;46702;48.370;10.794;2023-11-22T05:38:37;7.47;;;4.97;;
60867;SDS011;46702;48.370;10.794;2023-11-22T05:41:03;9.40;;;5.93;;
60867;SDS011;46702;48.370;10.794;2023-11-22T05:43:28;7.35;;;4.47;;
60867;SDS011;46702;48.370;10.794;2023-11-22T05:45:54;6.47;;;4.30;;
60867;SDS011;46702;48.370;10.794;2023-11-22T05:48:20;8.60;;;5.75;;
60867;SDS011;46702;48.370;10.794;2023-11-22T05:50:46;9.32;;;5.65;;
60867;SDS011;46702;48.370;10.794;2023-11-22T05:53:13;9.02;;;6.68;;
60867;SDS011;46702;48.370;10.794;2023-11-22T05:55:47;8.23;;;5.85;;
60867;SDS011;46702;48.370;10.794;2023-11-22T05:58:14;8.45;;;6.05;;
60867;SDS011;46702;48.370;10.794;2023-11-22T06:00:41;6.33;;;5.17;;
60867;SDS011;46702;48.370;10.794;2023-11-22T06:03:08;7.63;;;5.05;;
60867;SDS011;46702;48.370;10.794;2023-11-22T06:05:34;9.20;;;5.68;;
60867;SDS011;46702;48.370;10.794;2023-11-22T06:07:59;5.22;;;4.32;;
60867;SDS011;46702;48.370;10.794;2023-11-22T06:10:25;6.55;;;4.47;;
60867;SDS011;46702;48.370;10.794;2023-11-22T06:12:51;7.40;;;5.25;;
60867;SDS011;46702;48.370;10.794;2023-11-22T06:15:17;8.70;;;5.78;;
60867;SDS011;46702;48.370;10.794;2023-11-22T06:20:12;8.10;;;5.78;;
60867;SDS011;46702;48.370;10.794;2023-11-22T06:22:38;7.53;;;4.95;;
60867;SDS011;46702;48.370;10.794;2023-11-22T06:25:07;9.70;;;6.30;;
60867;SDS011;46702;48.370;10.794;2023-11-22T06:27:36;9.38;;;5.45;;
60867;SDS011;46702;48.370;10.794;2023-11-22T06:30:02;8.18;;;6.20;;
60867;SDS011;46702;48.370;10.794;2023-11-22T06:32:28;7.53;;;4.82;;
60867;SDS011;46702;48.370;10.794;2023-11-22T06:34:54;6.43;;;5.38;;
60867;SDS011;46702;48.370;10.794;2023-11-22T06:37:19;7.10;;;4.80;;
60867;SDS011;46702;48.370;10.794;2023-11-22T06:39:46;7.85;;;6.22;;
60867;SDS011;46702;48.370;10.794;2023-11-22T06:42:12;7.13;;;4.93;;
60867;SDS011;46702;48.370;10.794;2023-11-22T06:44:38;6.85;;;4.55;;
60867;SDS011;46702;48.370;10.794;2023-11-22T06:47:05;7.00;;;4.80;;
60867;SDS011;46702;48.370;10.794;2023-11-22T06:49:32;6.88;;;5.03;;
60867;SDS011;46702;48.370;10.794;2023-11-22T06:51:58;7.15;;;4.78;;
60867;SDS011;46702;48.370;10.794;2023-11-22T06:54:23;7.95;;;5.60;;
60867;SDS011;46702;48.370;10.794;2023-11-22T06:56:49;7.20;;;5.15;;
60867;SDS011;46702;48.370;10.794;2023-11-22T06:59:18;8.40;;;5.93;;
60867;SDS011;46702;48.370;10.794;2023-11-22T07:01:44;8.75;;;5.45;;
60867;SDS011;46702;48.370;10.794;2023-11-22T07:04:10;5.72;;;4.90;;
60867;SDS011;46702;48.370;10.794;2023-11-22T07:06:36;5.22;;;4.72;;
60867;SDS011;46702;48.370;10.794;2023-11-22T07:09:03;6.95;;;4.85;;
60867;SDS011;46702;48.370;10.794;2023-11-22T07:11:29;7.25;;;4.65;;
60867;SDS011;46702;48.370;10.794;2023-11-22T07:13:56;5.97;;;4.60;;
60867;SDS011;46702;48.370;10.794;2023-11-22T07:16:23;6.63;;;4.55;;
60867;SDS011;46702;48.370;10.794;2023-11-22T07:18:49;7.43;;;4.97;;
60867;SDS011;46702;48.370;10.794;2023-11-22T07:21:15;4.43;;;3.90;;
60867;SDS011;46702;48.370;10.794;2023-11-22T07:23:42;6.70;;;5.25;;
60867;SDS011;46702;48.370;10.794;2023-11-22T07:26:10;5.85;;;4.30;;
60867;SDS011;46702;48.370;10.794;2023-11-22T07:28:35;6.95;;;4.75;;
60867;SDS011;46702;48.370;10.794;2023-11-22T07:31:01;5.13;;;4.45;;
60867;SDS011;46702;48.370;10.794;2023-11-22T07:33:30;9.50;;;5.00;;
60867;SDS011;46702;48.370;10.794;2023-11-22T07:35:57;5.47;;;4.00;;
60867;SDS011;46702;48.370;10.794;2023-11-22T07:38:23;6.13;;;4.93;;
60867;SDS011;46702;48.370;10.794;2023-11-22T07:40:49;5.10;;;4.05;;
60867;SDS011;46702;48.370;10.794;2023-11-22T07:43:16;5.40;;;4.22;;
60867;SDS011;46702;48.370;10.794;2023-11-22T07:45:41;4.75;;;3.83;;
60867;SDS011;46702;48.370;10.794;2023-11-22T07:48:08;5.80;;;3.95;;
60867;SDS011;46702;48.370;10.794;2023-11-22T07:50:37;5.25;;;4.03;;
60867;SDS011;46702;48.370;10.794;2023-11-22T07:53:04;6.38;;;4.13;;
60867;SDS011;46702;48.370;10.794;2023-11-22T07:55:30;5.03;;;3.80;;
60867;SDS011;46702;48.370;10.794;2023-11-22T07:57:56;4.70;;;3.92;;
60867;SDS011;46702;48.370;10.794;2023-11-22T08:00:23;4.32;;;3.70;;
60867;SDS011;46702;48.370;10.794;2023-11-22T08:02:49;5.28;;;3.45;;
60867;SDS011;46702;48.370;10.794;2023-11-22T08:05:15;5.40;;;3.80;;
60867;SDS011;46702;48.370;10.794;2023-11-22T08:07:41;4.32;;;3.75;;
60867;SDS011;46702;48.370;10.794;2023-11-22T08:10:09;5.60;;;4.70;;
60867;SDS011;46702;48.370;10.794;2023-11-22T08:12:42;5.65;;;4.10;;
60867;SDS011;46702;48.370;10.794;2023-11-22T08:15:09;4.20;;;3.22;;
60867;SDS011;46702;48.370;10.794;2023-11-22T08:17:38;3.78;;;3.47;;
60867;SDS011;46702;48.370;10.794;2023-11-22T08:20:05;4.30;;;3.88;;
60867;SDS011;46702;48.370;10.794;2023-11-22T08:22:34;4.53;;;3.63;;
60867;SDS011;46702;48.370;10.794;2023-11-22T08:25:03;5.10;;;3.85;;
60867;SDS011;46702;48.370;10.794;2023-11-22T08:27:30;5.63;;;4.03;;
60867;SDS011;46702;48.370;10.794;2023-11-22T08:29:56;3.45;;;3.00;;
60867;SDS011;46702;48.370;10.794;2023-11-22T08:32:22;3.97;;;2.97;;
60867;SDS011;46702;48.370;10.794;2023-11-22T08:34:52;6.40;;;3.92;;
60867;SDS011;46702;48.370;10.794;2023-11-22T08:37:18;4.25;;;3.85;;
60867;SDS011;46702;48.370;10.794;2023-11-22T08:39:44;4.00;;;3.35;;
60867;SDS011;46702;48.370;10.794;2023-11-22T08:42:09;3.70;;;3.40;;
60867;SDS011;46702;48.370;10.794;2023-11-22T08:44:35;3.60;;;3.08;;
60867;SDS011;46702;48.370;10.794;2023-11-22T08:47:01;3.83;;;3.28;;
60867;SDS011;46702;48.370;10.794;2023-11-22T08:49:28;4.80;;;3.78;;
60867;SDS011;46702;48.370;10.794;2023-11-22T08:51:54;3.95;;;2.83;;
60867;SDS011;46702;48.370;10.794;2023-11-22T08:54:21;5.57;;;3.38;;
60867;SDS011;46702;48.370;10.794;2023-11-22T08:56:46;3.33;;;3.00;;
60867;SDS011;46702;48.370;10.794;2023-11-22T08:59:12;3.45;;;3.15;;
60867;SDS011;46702;48.370;10.794;2023-11-22T09:01:38;3.53;;;2.90;;
60867;SDS011;46702;48.370;10.794;2023-11-22T09:04:05;5.07;;;3.15;;
60867;SDS011;46702;48.370;10.794;2023-11-22T09:06:33;4.28;;;3.50;;
60867;SDS011;46702;48.370;10.794;2023-11-22T09:08:59;5.68;;;3.30;;
60867;SDS011;46702;48.370;10.794;2023-11-22T09:11:25;3.10;;;2.60;;
60867;SDS011;46702;48.370;10.794;2023-11-22T09:13:51;4.70;;;3.40;;
60867;SDS011;46702;48.370;10.794;2023-11-22T09:16:21;4.40;;;2.80;;
60867;SDS011;46702;48.370;10.794;2023-11-22T09:21:48;4.03;;;2.67;;
60867;SDS011;46702;48.370;10.794;2023-11-22T09:24:14;4.57;;;3.53;;
60867;SDS011;46702;48.370;10.794;2023-11-22T09:26:40;3.70;;;3.10;;
60867;SDS011;46702;48.370;10.794;2023-11-22T09:29:06;4.70;;;3.47;;
60867;SDS011;46702;48.370;10.794;2023-11-22T09:31:32;4.25;;;3.85;;
60867;SDS011;46702;48.370;10.794;2023-11-22T09:33:58;4.32;;;3.35;;
60867;SDS011;46702;48.370;10.794;2023-11-22T09:36:23;4.90;;;3.58;;
60867;SDS011;46702;48.370;10.794;2023-11-22T09:38:53;3.88;;;3.47;;
60867;SDS011;46702;48.370;10.794;2023-11-22T09:41:19;6.88;;;3.55;;
60867;SDS011;46702;48.370;10.794;2023-11-22T09:43:46;5.47;;;4.22;;
60867;SDS011;46702;48.370;10.794;2023-11-22T09:46:14;4.03;;;3.03;;
60867;SDS011;46702;48.370;10.794;2023-11-22T09:48:44;3.50;;;3.20;;
60867;SDS011;46702;48.370;10.794;2023-11-22T09:53:52;3.47;;;2.97;;
60867;SDS011;46702;48.370;10.794;2023-11-22T09:56:21;4.53;;;3.53;;
60867;SDS011;46702;48.370;10.794;2023-11-22T09:58:51;5.13;;;4.10;;
60867;SDS011;46702;48.370;10.794;2023-11-22T10:01:21;9.95;;;4.10;;
60867;SDS011;46702;48.370;10.794;2023-11-22T10:03:47;5.82;;;4.05;;
60867;SDS011;46702;48.370;10.794;2023-11-22T10:06:13;5.03;;;3.58;;
60867;SDS011;46702;48.370;10.794;2023-11-22T10:08:40;4.43;;;3.55;;
60867;SDS011;46702;48.370;10.794;2023-11-22T10:11:06;4.60;;;3.45;;
60867;SDS011;46702;48.370;10.794;2023-11-22T10:13:32;4.25;;;3.33;;
60867;SDS011;46702;48.370;10.794;2023-11-22T10:16:12;4.45;;;3.75;;
60867;SDS011;46702;48.370;10.794;2023-11-22T10:18:44;3.95;;;3.25;;
60867;SDS011;46702;48.370;10.794;2023-11-22T10:21:24;4.25;;;3.22;;
60867;SDS011;46702;48.370;10.794;2023-11-22T10:23:50;3.35;;;3.05;;
60867;SDS011;46702;48.370;10.794;2023-11-22T10:26:18;5.30;;;3.83;;
60867;SDS011;46702;48.370;10.794;2023-11-22T10:28:44;3.72;;;3.10;;
60867;SDS011;46702;48.370;10.794;2023-11-22T10:31:10;3.75;;;3.35;;
60867;SDS011;46702;48.370;10.794;2023-11-22T10:33:42;6.03;;;4.22;;
60867;SDS011;46702;48.370;10.794;2023-11-22T10:36:08;4.25;;;3.85;;
60867;SDS011;46702;48.370;10.794;2023-11-22T10:38:34;4.60;;;3.40;;
60867;SDS011;46702;48.370;10.794;2023-11-22T10:41:04;6.00;;;3.67;;
60867;SDS011;46702;48.370;10.794;2023-11-22T10:43:30;3.95;;;3.55;;
60867;SDS011;46702;48.370;10.794;2023-11-22T10:46:00;4.95;;;3.78;;
60867;SDS011;46702;48.370;10.794;2023-11-22T10:48:27;4.32;;;3.38;;
60867;SDS011;46702;48.370;10.794;2023-11-22T10:50:54;4.97;;;3.92;;
60867;SDS011;46702;48.370;10.794;2023-11-22T10:53:22;4.70;;;3.47;;
60867;SDS011;46702;48.370;10.794;2023-11-22T10:55:59;5.93;;;4.40;;
60867;SDS011;46702;48.370;10.794;2023-11-22T10:58:47;4.40;;;4.00;;
60867;SDS011;46702;48.370;10.794;2023-11-22T11:01:15;4.65;;;3.88;;
60867;SDS011;46702;48.370;10.794;2023-11-22T11:03:41;4.93;;;3.80;;
60867;SDS011;46702;48.370;10.794;2023-11-22T11:06:14;5.85;;;3.63;;
60867;SDS011;46702;48.370;10.794;2023-11-22T11:08:44;3.55;;;3.22;;
60867;SDS011;46702;48.370;10.794;2023-11-22T11:11:11;4.60;;;3.80;;
60867;SDS011;46702;48.370;10.794;2023-11-22T11:13:39;4.43;;;3.92;;
60867;SDS011;46702;48.370;10.794;2023-11-22T11:16:05;5.25;;;3.65;;
60867;SDS011;46702;48.370;10.794;2023-11-22T11:18:31;4.85;;;4.03;;
60867;SDS011;46702;48.370;10.794;2023-11-22T11:20:58;5.38;;;3.90;;
60867;SDS011;46702;48.370;10.794;2023-11-22T11:23:25;4.53;;;3.58;;
60867;SDS011;46702;48.370;10.794;2023-11-22T11:25:55;5.00;;;3.72;;
60867;SDS011;46702;48.370;10.794;2023-11-22T11:28:24;4.75;;;3.47;;
60867;SDS011;46702;48.370;10.794;2023-11-22T11:30:51;5.85;;;3.10;;
60867;SDS011;46702;48.370;10.794;2023-11-22T11:34:19;3.63;;;3.30;;
60867;SDS011;46702;48.370;10.794;2023-11-22T11:36:20;3.78;;;3.45;;
60867;SDS011;46702;48.370;10.794;2023-11-22T11:38:53;4.18;;;3.60;;
60867;SDS011;46702;48.370;10.794;2023-11-22T11:41:38;5.82;;;3.97;;
60867;SDS011;46702;48.370;10.794;2023-11-22T11:44:09;5.68;;;3.78;;
60867;SDS011;46702;48.370;10.794;2023-11-22T11:46:37;5.30;;;3.67;;
60867;SDS011;46702;48.370;10.794;2023-11-22T11:49:06;5.20;;;3.63;;
60867;SDS011;46702;48.370;10.794;2023-11-22T11:51:38;6.00;;;3.58;;
60867;SDS011;46702;48.370;10.794;2023-11-22T11:54:04;7.15;;;4.97;;
60867;SDS011;46702;48.370;10.794;2023-11-22T11:56:36;4.75;;;3.38;;
60867;SDS011;46702;48.370;10.794;2023-11-22T11:59:02;4.65;;;3.63;;
60867;SDS011;46702;48.370;10.794;2023-11-22T12:01:29;6.38;;;4.40;;
60867;SDS011;46702;48.370;10.794;2023-11-22T12:03:57;5.65;;;4.00;;
60867;SDS011;46702;48.370;10.794;2023-11-22T12:06:25;6.32;;;4.07;;
60867;SDS011;46702;48.370;10.794;2023-11-22T12:08:51;5.80;;;4.10;;
60867;SDS011;46702;48.370;10.794;2023-11-22T12:11:18;5.00;;;3.92;;
60867;SDS011;46702;48.370;10.794;2023-11-22T12:13:44;4.78;;;3.63;;
60867;SDS011;46702;48.370;10.794;2023-11-22T12:16:15;5.75;;;4.03;;
60867;SDS011;46702;48.370;10.794;2023-11-22T12:18:45;5.68;;;4.13;;
60867;SDS011;46702;48.370;10.794;2023-11-22T12:21:15;5.70;;;3.72;;
60867;SDS011;46702;48.370;10.794;2023-11-22T12:23:43;6.10;;;4.07;;
60867;SDS011;46702;48.370;10.794;2023-11-22T12:26:17;5.88;;;3.65;;
60867;SDS011;46702;48.370;10.794;2023-11-22T12:28:45;6.80;;;4.57;;
60867;SDS011;46702;48.370;10.794;2023-11-22T12:31:13;6.18;;;4.07;;
60867;SDS011;46702;48.370;10.794;2023-11-22T12:33:40;4.78;;;3.65;;
60867;SDS011;46702;48.370;10.794;2023-11-22T12:36:07;6.10;;;4.25;;
60867;SDS011;46702;48.370;10.794;2023-11-22T12:38:34;9.40;;;4.50;;
60867;SDS011;46702;48.370;10.794;2023-11-22T12:41:01;6.53;;;4.13;;
60867;SDS011;46702;48.370;10.794;2023-11-22T12:43:28;6.88;;;4.30;;
60867;SDS011;46702;48.370;10.794;2023-11-22T12:46:00;8.10;;;5.00;;
60867;SDS011;46702;48.370;10.794;2023-11-22T12:48:41;7.25;;;4.25;;
60867;SDS011;46702;48.370;10.794;2023-11-22T12:51:16;6.88;;;4.65;;
60867;SDS011;46702;48.370;10.794;2023-11-22T12:53:45;5.45;;;4.00;;
60867;SDS011;46702;48.370;10.794;2023-11-22T12:56:11;7.53;;;4.40;;
60867;SDS011;46702;48.370;10.794;2023-11-22T12:58:37;5.60;;;3.92;;
60867;SDS011;46702;48.370;10.794;2023-11-22T13:01:03;5.82;;;3.92;;
60867;SDS011;46702;48.370;10.794;2023-11-22T13:03:29;5.15;;;4.13;;
60867;SDS011;46702;48.370;10.794;2023-11-22T13:05:56;5.70;;;3.78;;
60867;SDS011;46702;48.370;10.794;2023-11-22T13:08:22;6.05;;;3.95;;
60867;SDS011;46702;48.370;10.794;2023-11-22T13:10:54;5.43;;;3.72;;
60867;SDS011;46702;48.370;10.794;2023-11-22T13:13:22;5.72;;;4.18;;
60867;SDS011;46702;48.370;10.794;2023-11-22T13:15:52;7.85;;;3.95;;
60867;SDS011;46702;48.370;10.794;2023-11-22T13:18:18;10.57;;;4.40;;
60867;SDS011;46702;48.370;10.794;2023-11-22T13:20:47;6.80;;;4.50;;
60867;SDS011;46702;48.370;10.794;2023-11-22T13:23:15;6.13;;;3.88;;
60867;SDS011;46702;48.370;10.794;2023-11-22T13:25:41;6.05;;;4.07;;
60867;SDS011;46702;48.370;10.794;2023-11-22T13:28:07;6.25;;;4.00;;
60867;SDS011;46702;48.370;10.794;2023-11-22T13:30:33;6.07;;;3.80;;
60867;SDS011;46702;48.370;10.794;2023-11-22T13:33:00;5.20;;;3.97;;
60867;SDS011;46702;48.370;10.794;2023-11-22T13:35:27;8.15;;;4.30;;
60867;SDS011;46702;48.370;10.794;2023-11-22T13:37:57;5.97;;;4.45;;
60867;SDS011;46702;48.370;10.794;2023-11-22T13:40:24;4.78;;;3.33;;
60867;SDS011;46702;48.370;10.794;2023-11-22T13:42:52;5.63;;;4.20;;
60867;SDS011;46702;48.370;10.794;2023-11-22T13:45:18;5.78;;;3.95;;
60867;SDS011;46702;48.370;10.794;2023-11-22T13:47:45;5.03;;;4.00;;
60867;SDS011;46702;48.370;10.794;2023-11-22T13:50:15;5.82;;;4.25;;
60867;SDS011;46702;48.370;10.794;2023-11-22T13:52:47;6.15;;;4.15;;
60867;SDS011;46702;48.370;10.794;2023-11-22T13:55:13;4.72;;;3.63;;
60867;SDS011;46702;48.370;10.794;2023-11-22T13:57:44;5.55;;;3.70;;
60867;SDS011;46702;48.370;10.794;2023-11-22T14:00:10;4.85;;;3.45;;
60867;SDS011;46702;48.370;10.794;2023-11-22T14:02:46;6.82;;;4.05;;
60867;SDS011;46702;48.370;10.794;2023-11-22T14:05:21;7.82;;;4.68;;
60867;SDS011;46702;48.370;10.794;2023-11-22T14:07:51;4.45;;;3.38;;
60867;SDS011;46702;48.370;10.794;2023-11-22T14:10:18;6.10;;;4.30;;
60867;SDS011;46702;48.370;10.794;2023-11-22T14:12:44;5.88;;;3.97;;
60867;SDS011;46702;48.370;10.794;2023-11-22T14:15:11;6.00;;;4.30;;
60867;SDS011;46702;48.370;10.794;2023-11-22T14:17:37;5.45;;;3.70;;
60867;SDS011;46702;48.370;10.794;2023-11-22T14:20:07;5.50;;;4.22;;
60867;SDS011;46702;48.370;10.794;2023-11-22T14:22:37;5.65;;;3.70;;
60867;SDS011;46702;48.370;10.794;2023-11-22T14:25:04;7.07;;;3.97;;
60867;SDS011;46702;48.370;10.794;2023-11-22T14:27:37;5.28;;;3.78;;
60867;SDS011;46702;48.370;10.794;2023-11-22T14:30:06;6.22;;;3.83;;
60867;SDS011;46702;48.370;10.794;2023-11-22T14:32:34;6.22;;;4.07;;
60867;SDS011;46702;48.370;10.794;2023-11-22T14:35:01;5.20;;;3.83;;
60867;SDS011;46702;48.370;10.794;2023-11-22T14:37:30;5.25;;;3.85;;
60867;SDS011;46702;48.370;10.794;2023-11-22T14:40:00;5.22;;;4.05;;
60867;SDS011;46702;48.370;10.794;2023-11-22T14:42:29;6.20;;;3.80;;